CheckWX is a tool to help pilots better visualize weather data.  It is not intended as a substitute for an official pre-flight weather briefing.

14:02:10 UTC

EGPH METAR
Edinburgh Airport
Edinburgh, United Kingdom
Current

42 mins ago

EGPH 201320Z 26006KT 220V290 9999 SCT035 16/09 Q1013
Observed
May-20 @ 13:20 UTC
Wind
  • 260° at 6 KTS
Visibility
10,000+ meters
Flight Rules
VFR
Cloud Levels
  • Scattered at 3,500' AGL
Temperature
16°C / 61°F
Dewpoint
C / 48°F
Humidity
63%
Altimeter
29.91" Hg
Pressure
1012.92 hPa
Previous

1 hour ago

EGPH 201250Z 26006KT 230V310 9999 SCT030TCU 16/10 Q1013
Observed
May-20 @ 12:50 UTC
Wind
  • 260° at 6 KTS
Visibility
10,000+ meters
Flight Rules
VFR
Cloud Levels
  • Scattered at 3,000' AGL
Temperature
16°C / 61°F
Dewpoint
10°C / 50°F
Humidity
68%
Altimeter
29.91" Hg
Pressure
1012.92 hPa
Previous

2 hours ago

EGPH 201220Z 25007KT 220V290 9999 SCT023TCU 16/10 Q1013
Observed
May-20 @ 12:20 UTC
Wind
  • 250° at 7 KTS
Visibility
10,000+ meters
Flight Rules
VFR
Cloud Levels
  • Scattered at 2,300' AGL
Temperature
16°C / 61°F
Dewpoint
10°C / 50°F
Humidity
68%
Altimeter
29.91" Hg
Pressure
1012.92 hPa